createdAt,value
2023-03-29T00:00:01.528Z,4.00
2023-03-29T00:02:31.007Z,1.93
2023-03-29T00:05:03.874Z,3.87
2023-03-29T00:07:33.465Z,2.10
2023-03-29T00:10:02.838Z,6.97
2023-03-29T00:12:29.752Z,3.33
2023-03-29T00:15:01.039Z,1.80
2023-03-29T00:17:28.415Z,2.73
2023-03-29T00:19:55.387Z,1.67
2023-03-29T00:22:22.206Z,3.40
2023-03-29T00:24:49.203Z,6.27
2023-03-29T00:27:16.765Z,2.80
2023-03-29T00:29:43.748Z,3.23
2023-03-29T00:32:10.564Z,2.20
2023-03-29T00:34:37.281Z,2.03
2023-03-29T00:37:08.884Z,2.17
2023-03-29T00:39:37.169Z,3.30
2023-03-29T00:42:04.211Z,2.63
2023-03-29T00:45:07.336Z,4.17
2023-03-29T00:47:51.770Z,3.73
2023-03-29T00:50:36.232Z,3.03
2023-03-29T00:53:21.364Z,4.33
2023-03-29T00:56:03.836Z,2.73
2023-03-29T00:58:49.482Z,2.97
2023-03-29T01:01:28.253Z,3.03
2023-03-29T01:04:09.783Z,4.23
2023-03-29T01:06:44.166Z,2.73
2023-03-29T01:09:16.284Z,1.90
2023-03-29T01:11:57.136Z,4.80
2023-03-29T01:14:37.658Z,3.00
2023-03-29T01:17:04.856Z,6.87
2023-03-29T01:19:45.038Z,1.80
2023-03-29T01:22:40.712Z,3.27
2023-03-29T01:25:29.715Z,3.17
2023-03-29T01:28:21.389Z,3.07
2023-03-29T01:31:18.379Z,3.47
2023-03-29T01:33:56.042Z,6.63
2023-03-29T01:36:58.698Z,2.20
2023-03-29T01:39:26.023Z,4.00
2023-03-29T01:42:07.772Z,3.60
2023-03-29T01:44:51.978Z,3.73
2023-03-29T01:48:07.994Z,3.63
2023-03-29T01:51:55.090Z,2.27
2023-03-29T01:54:35.309Z,3.77
2023-03-29T01:57:08.260Z,2.20
2023-03-29T01:59:40.430Z,3.97
2023-03-29T02:02:14.589Z,3.03
2023-03-29T02:04:55.632Z,3.90
2023-03-29T02:07:32.252Z,4.27
2023-03-29T02:10:00.502Z,5.03
2023-03-29T02:12:27.298Z,3.57
2023-03-29T02:14:54.720Z,3.03
2023-03-29T02:17:24.939Z,3.83
2023-03-29T02:20:33.779Z,4.80
2023-03-29T02:23:24.843Z,3.77
2023-03-29T02:25:53.844Z,3.50
2023-03-29T02:28:25.409Z,3.63
2023-03-29T02:31:09.561Z,5.33
2023-03-29T02:34:11.270Z,4.93
2023-03-29T02:36:47.336Z,3.80
2023-03-29T02:39:18.009Z,3.43
2023-03-29T02:41:49.567Z,3.47
2023-03-29T02:44:22.391Z,3.17
2023-03-29T02:46:58.104Z,2.87
2023-03-29T02:49:25.244Z,3.50
2023-03-29T02:51:57.113Z,3.10
2023-03-29T02:54:30.251Z,4.90
2023-03-29T02:57:02.533Z,2.53
2023-03-29T02:59:30.426Z,3.13
2023-03-29T03:01:58.188Z,4.30
2023-03-29T03:04:25.942Z,3.17
2023-03-29T03:06:52.800Z,3.57
2023-03-29T03:09:19.947Z,3.43
2023-03-29T03:11:46.744Z,6.13
2023-03-29T03:14:13.492Z,3.83
2023-03-29T03:16:40.288Z,6.30
2023-03-29T03:19:07.080Z,5.37
2023-03-29T03:21:35.163Z,3.33
2023-03-29T03:24:02.035Z,3.50
2023-03-29T03:26:31.486Z,7.53
2023-03-29T03:28:58.258Z,5.23
2023-03-29T03:31:25.291Z,2.67
2023-03-29T03:33:52.809Z,4.13
2023-03-29T03:36:19.493Z,4.63
2023-03-29T03:38:46.241Z,2.70
2023-03-29T03:41:13.100Z,2.80
2023-03-29T03:43:42.713Z,4.30
2023-03-29T03:46:09.720Z,4.73
2023-03-29T03:48:37.571Z,2.63
2023-03-29T03:51:06.002Z,4.47
2023-03-29T03:53:34.022Z,2.90
2023-03-29T03:56:02.197Z,4.60
2023-03-29T03:58:28.898Z,3.27
2023-03-29T04:00:55.662Z,4.40
2023-03-29T04:03:22.716Z,6.77
2023-03-29T04:05:49.914Z,3.93
2023-03-29T04:08:18.028Z,2.93
2023-03-29T04:10:54.483Z,4.20
2023-03-29T04:13:22.957Z,3.37
2023-03-29T04:15:54.037Z,4.50
2023-03-29T04:18:21.548Z,4.50
2023-03-29T04:20:49.258Z,5.33
2023-03-29T04:23:16.402Z,3.23
2023-03-29T04:25:43.477Z,3.33
2023-03-29T04:28:21.739Z,3.80
2023-03-29T04:30:49.004Z,3.43
2023-03-29T04:33:15.920Z,4.53
2023-03-29T04:35:43.090Z,3.87
2023-03-29T04:38:13.790Z,5.13
2023-03-29T04:40:40.576Z,3.53
2023-03-29T04:43:07.299Z,4.97
2023-03-29T04:45:34.483Z,3.33
2023-03-29T04:48:02.306Z,2.90
2023-03-29T04:50:29.201Z,3.67
2023-03-29T04:52:55.963Z,5.93
2023-03-29T04:55:22.833Z,4.67
2023-03-29T04:57:49.595Z,4.70
2023-03-29T05:00:17.080Z,4.43
2023-03-29T05:02:45.061Z,3.50
2023-03-29T05:05:13.837Z,5.47
2023-03-29T05:07:41.255Z,4.30
2023-03-29T05:10:09.243Z,6.07
2023-03-29T05:12:36.718Z,3.80
2023-03-29T05:15:08.012Z,4.97
2023-03-29T05:17:35.119Z,3.10
2023-03-29T05:20:07.072Z,4.80
2023-03-29T05:22:33.858Z,3.03
2023-03-29T05:25:08.474Z,4.60
2023-03-29T05:27:35.651Z,3.90
2023-03-29T05:30:02.878Z,4.40
2023-03-29T05:32:30.321Z,4.33
2023-03-29T05:34:57.593Z,5.30
2023-03-29T05:37:24.360Z,4.63
2023-03-29T05:39:51.089Z,4.07
2023-03-29T05:42:24.462Z,4.40
2023-03-29T05:44:52.811Z,4.90
2023-03-29T05:47:21.222Z,4.10
2023-03-29T05:49:47.966Z,3.23
2023-03-29T05:52:14.975Z,5.43
2023-03-29T05:54:42.164Z,4.77
2023-03-29T05:57:08.920Z,4.83
2023-03-29T05:59:35.746Z,6.40
2023-03-29T06:02:05.073Z,4.90
2023-03-29T06:04:33.600Z,3.37
2023-03-29T06:07:02.054Z,4.50
2023-03-29T06:09:28.794Z,4.27
2023-03-29T06:11:56.370Z,5.37
2023-03-29T06:14:24.816Z,5.23
2023-03-29T06:16:51.798Z,4.20
2023-03-29T06:19:19.314Z,2.77
2023-03-29T06:21:47.341Z,3.70
2023-03-29T06:24:14.219Z,5.33
2023-03-29T06:26:41.934Z,4.67
2023-03-29T06:29:09.181Z,6.00
2023-03-29T06:31:36.369Z,4.23
2023-03-29T06:34:04.756Z,4.57
2023-03-29T06:36:34.278Z,6.17
2023-03-29T06:39:00.993Z,5.27
2023-03-29T06:41:27.792Z,5.43
2023-03-29T06:43:55.076Z,4.27
2023-03-29T06:46:22.619Z,6.20
2023-03-29T06:49:01.328Z,6.37
2023-03-29T06:51:28.159Z,5.60
2023-03-29T06:53:55.099Z,5.57
2023-03-29T06:56:22.282Z,6.77
2023-03-29T06:58:49.021Z,9.03
2023-03-29T07:01:15.990Z,5.20
2023-03-29T07:03:46.741Z,7.30
2023-03-29T07:06:14.962Z,7.63
2023-03-29T07:08:45.046Z,5.87
2023-03-29T07:11:14.462Z,4.83
2023-03-29T07:13:42.923Z,9.90
2023-03-29T07:16:13.659Z,5.43
2023-03-29T07:18:43.957Z,5.57
2023-03-29T07:21:13.231Z,4.00
2023-03-29T07:23:40.967Z,8.03
2023-03-29T07:26:08.097Z,6.10
2023-03-29T07:28:37.367Z,6.03
2023-03-29T07:31:10.953Z,9.27
2023-03-29T07:33:39.277Z,6.97
2023-03-29T07:36:07.354Z,5.90
2023-03-29T07:38:34.208Z,4.60
2023-03-29T07:41:06.666Z,6.37
2023-03-29T07:43:34.381Z,6.93
2023-03-29T07:46:04.831Z,6.87
2023-03-29T07:48:33.619Z,7.70
2023-03-29T07:51:00.811Z,6.23
2023-03-29T07:53:29.588Z,11.40
2023-03-29T07:55:56.942Z,8.20
2023-03-29T07:58:23.695Z,7.93
2023-03-29T08:00:50.604Z,6.03
2023-03-29T08:03:17.660Z,11.57
2023-03-29T08:05:44.996Z,9.60
2023-03-29T08:08:14.005Z,7.20
2023-03-29T08:10:42.595Z,9.23
2023-03-29T08:13:11.699Z,9.20
2023-03-29T08:15:40.005Z,8.20
2023-03-29T08:18:08.579Z,12.40
2023-03-29T08:20:35.395Z,8.70
2023-03-29T08:23:02.553Z,10.90
2023-03-29T08:25:29.696Z,10.10
2023-03-29T08:27:56.558Z,8.10
2023-03-29T08:30:23.461Z,8.87
2023-03-29T08:32:52.996Z,9.30
2023-03-29T08:35:22.257Z,11.17
2023-03-29T08:37:49.033Z,8.55
2023-03-29T08:40:23.237Z,10.63
2023-03-29T08:42:58.988Z,10.87
2023-03-29T08:46:02.066Z,8.37
2023-03-29T08:49:03.664Z,9.93
2023-03-29T08:51:39.342Z,9.07
2023-03-29T08:54:20.488Z,10.13
2023-03-29T08:56:51.304Z,9.30
2023-03-29T08:59:25.226Z,14.73
2023-03-29T09:01:57.776Z,9.70
2023-03-29T09:04:34.834Z,11.27
2023-03-29T09:07:09.311Z,8.43
2023-03-29T09:09:36.335Z,9.07
2023-03-29T09:12:24.806Z,9.77
2023-03-29T09:15:09.848Z,8.70
2023-03-29T09:18:02.190Z,10.32
2023-03-29T09:21:22.747Z,9.18
2023-03-29T09:24:20.784Z,10.82
2023-03-29T09:27:14.319Z,11.10
2023-03-29T09:29:55.135Z,8.65
2023-03-29T09:32:50.403Z,9.77
2023-03-29T09:35:27.630Z,8.63
2023-03-29T09:37:55.391Z,10.93
2023-03-29T09:40:39.729Z,8.93
2023-03-29T09:43:13.762Z,10.13
2023-03-29T09:45:42.779Z,10.00
2023-03-29T09:48:19.339Z,12.70
2023-03-29T09:50:52.819Z,10.45
2023-03-29T09:53:21.856Z,9.20
2023-03-29T09:55:50.894Z,10.40
2023-03-29T09:58:28.382Z,10.57
2023-03-29T10:01:00.711Z,10.13
2023-03-29T10:03:31.774Z,9.23
2023-03-29T10:06:02.690Z,13.20
2023-03-29T10:08:58.963Z,11.48
2023-03-29T10:11:33.497Z,12.05
2023-03-29T10:14:14.005Z,10.73
2023-03-29T10:16:46.055Z,8.57
2023-03-29T10:19:21.244Z,9.70
2023-03-29T10:21:53.884Z,11.40
2023-03-29T10:24:23.169Z,9.75
2023-03-29T10:26:55.825Z,11.45
2023-03-29T10:29:25.946Z,10.00
2023-03-29T10:31:53.746Z,10.07
2023-03-29T10:34:26.948Z,11.38
2023-03-29T10:37:02.025Z,12.05
2023-03-29T10:39:35.412Z,9.25
2023-03-29T10:42:04.209Z,12.38
2023-03-29T10:44:37.538Z,10.02
2023-03-29T10:47:23.315Z,10.55
2023-03-29T10:49:58.694Z,10.52
2023-03-29T10:52:25.979Z,10.55
2023-03-29T10:54:56.286Z,11.20
2023-03-29T10:57:57.330Z,11.13
2023-03-29T11:00:51.814Z,10.98
2023-03-29T11:03:41.188Z,8.30
2023-03-29T11:06:42.743Z,9.13
2023-03-29T11:09:45.728Z,11.07
2023-03-29T11:12:24.257Z,9.32
2023-03-29T11:15:20.263Z,10.32
2023-03-29T11:18:28.557Z,7.57
2023-03-29T11:21:23.611Z,8.05
2023-03-29T11:23:59.203Z,8.05
2023-03-29T11:26:57.338Z,8.80
2023-03-29T11:29:48.884Z,14.32
2023-03-29T11:32:53.144Z,9.43
2023-03-29T11:36:25.602Z,13.63
2023-03-29T11:39:11.836Z,9.52
2023-03-29T11:42:09.704Z,10.27
2023-03-29T11:44:40.798Z,11.70
2023-03-29T11:47:23.068Z,10.30
2023-03-29T11:50:15.623Z,10.25
2023-03-29T11:53:29.200Z,9.77
2023-03-29T11:56:24.519Z,10.02
2023-03-29T11:59:01.695Z,8.48
2023-03-29T12:01:56.414Z,9.18
2023-03-29T12:04:36.547Z,7.55
2023-03-29T12:07:50.919Z,8.98
2023-03-29T12:10:26.707Z,10.23
2023-03-29T12:13:06.088Z,10.32
2023-03-29T12:15:45.501Z,10.27
2023-03-29T12:18:49.516Z,10.75
2023-03-29T12:21:21.622Z,12.52
2023-03-29T12:23:49.547Z,10.20
2023-03-29T12:26:32.823Z,10.50
2023-03-29T12:29:20.553Z,13.45
2023-03-29T12:31:57.335Z,11.38
2023-03-29T12:34:57.497Z,18.55
2023-03-29T12:37:27.361Z,12.40
2023-03-29T12:39:54.344Z,17.15
2023-03-29T12:42:23.948Z,13.88
2023-03-29T12:44:59.011Z,16.23
2023-03-29T12:47:40.548Z,13.15
2023-03-29T12:50:23.234Z,9.57
2023-03-29T12:52:50.323Z,11.23
2023-03-29T12:55:48.924Z,11.88
2023-03-29T12:58:39.209Z,10.52
2023-03-29T13:01:24.233Z,10.77
2023-03-29T13:04:01.240Z,9.70
2023-03-29T13:07:02.723Z,9.55
2023-03-29T13:09:57.567Z,10.82
2023-03-29T13:12:35.249Z,12.68
2023-03-29T13:15:25.140Z,10.50
2023-03-29T13:18:12.178Z,9.95
2023-03-29T13:21:16.201Z,9.10
2023-03-29T13:24:03.270Z,9.45
2023-03-29T13:27:13.888Z,9.93
2023-03-29T13:30:12.915Z,7.80
2023-03-29T13:33:05.808Z,6.75
2023-03-29T13:35:59.920Z,7.80
2023-03-29T13:38:31.794Z,8.38
2023-03-29T13:41:07.755Z,8.43
2023-03-29T13:43:55.228Z,8.70
2023-03-29T13:46:43.200Z,8.68
2023-03-29T13:49:27.741Z,10.32
2023-03-29T13:51:54.471Z,10.88
2023-03-29T13:54:36.569Z,8.07
2023-03-29T13:57:30.017Z,9.90
2023-03-29T14:00:18.102Z,8.13
2023-03-29T14:02:54.927Z,9.25
2023-03-29T14:05:37.305Z,9.02
2023-03-29T14:08:30.933Z,11.02
2023-03-29T14:11:04.483Z,9.43
2023-03-29T14:13:31.456Z,8.88
2023-03-29T14:16:10.603Z,8.30
2023-03-29T14:18:41.172Z,8.80
2023-03-29T14:21:13.001Z,9.25
2023-03-29T14:23:53.548Z,9.32
2023-03-29T14:26:24.289Z,8.82
2023-03-29T14:28:58.384Z,13.27
2023-03-29T14:31:32.717Z,10.15
2023-03-29T14:34:05.568Z,12.40
2023-03-29T14:36:33.988Z,10.88
2023-03-29T14:39:23.312Z,13.73
2023-03-29T14:41:53.965Z,11.63
2023-03-29T14:44:24.805Z,10.15
2023-03-29T14:46:52.269Z,11.63
2023-03-29T14:49:23.475Z,12.15
2023-03-29T14:51:52.876Z,9.70
2023-03-29T14:54:32.135Z,12.07
2023-03-29T14:56:59.963Z,9.40
2023-03-29T14:59:40.886Z,8.43
2023-03-29T15:02:31.014Z,13.52
2023-03-29T15:05:05.137Z,10.05
2023-03-29T15:07:36.446Z,8.38
2023-03-29T15:10:06.482Z,9.82
2023-03-29T15:12:35.992Z,9.25
2023-03-29T15:15:04.196Z,9.98
2023-03-29T15:17:50.997Z,7.80
2023-03-29T15:20:28.445Z,6.70
2023-03-29T15:23:08.393Z,9.65
2023-03-29T15:25:48.439Z,6.60
2023-03-29T15:28:27.582Z,12.07
2023-03-29T15:31:08.131Z,6.65
2023-03-29T15:33:38.831Z,6.05
2023-03-29T15:36:08.500Z,6.65
2023-03-29T15:38:44.199Z,4.85
2023-03-29T15:41:14.220Z,5.60
2023-03-29T15:43:41.949Z,5.97
2023-03-29T15:46:13.894Z,6.20
2023-03-29T15:48:41.570Z,5.25
2023-03-29T15:51:12.442Z,5.45
2023-03-29T15:53:39.660Z,5.95
2023-03-29T15:56:11.550Z,4.75
2023-03-29T15:58:39.066Z,9.18
2023-03-29T16:01:36.641Z,5.43
2023-03-29T16:04:23.818Z,8.48
2023-03-29T16:06:54.979Z,7.65
2023-03-29T16:09:25.084Z,5.28
2023-03-29T16:11:51.871Z,4.88
2023-03-29T16:14:27.036Z,4.65
2023-03-29T16:16:59.351Z,4.70
2023-03-29T16:19:28.770Z,5.53
2023-03-29T16:21:55.924Z,5.03
2023-03-29T16:24:26.697Z,4.88
2023-03-29T16:26:56.452Z,5.30
2023-03-29T16:29:25.293Z,3.45
2023-03-29T16:31:53.080Z,4.50
2023-03-29T16:34:22.620Z,3.63
2023-03-29T16:36:50.670Z,4.60
2023-03-29T16:39:18.115Z,4.13
2023-03-29T16:41:48.201Z,3.25
2023-03-29T16:44:23.757Z,3.45
2023-03-29T16:46:54.475Z,3.30
2023-03-29T16:49:21.524Z,2.72
2023-03-29T16:51:48.431Z,4.25
2023-03-29T16:54:17.654Z,3.03
2023-03-29T16:56:44.800Z,3.22
2023-03-29T16:59:12.204Z,3.42
2023-03-29T17:01:40.627Z,5.38
2023-03-29T17:04:08.172Z,3.05
2023-03-29T17:06:38.182Z,4.78
2023-03-29T17:09:06.080Z,5.00
2023-03-29T17:11:33.573Z,3.05
2023-03-29T17:14:03.057Z,6.25
2023-03-29T17:16:29.821Z,5.88
2023-03-29T17:19:00.369Z,3.05
2023-03-29T17:21:28.800Z,3.83
2023-03-29T17:23:55.570Z,6.03
2023-03-29T17:26:22.410Z,3.03
2023-03-29T17:28:49.387Z,3.85
2023-03-29T17:31:16.944Z,2.65
2023-03-29T17:33:43.755Z,4.40
2023-03-29T17:36:11.866Z,2.30
2023-03-29T17:38:38.670Z,2.67
2023-03-29T17:41:07.904Z,3.80
2023-03-29T17:43:34.704Z,3.58
2023-03-29T17:46:01.665Z,3.38
2023-03-29T17:48:28.749Z,2.83
2023-03-29T17:50:56.958Z,2.35
2023-03-29T17:53:25.876Z,4.22
2023-03-29T17:55:52.882Z,2.78
2023-03-29T17:58:19.730Z,4.45
2023-03-29T18:00:46.576Z,3.67
2023-03-29T18:03:13.576Z,3.10
2023-03-29T18:05:40.684Z,4.40
2023-03-29T18:08:08.698Z,3.70
2023-03-29T18:10:36.811Z,3.35
2023-03-29T18:13:03.761Z,4.78
2023-03-29T18:15:30.493Z,4.60
2023-03-29T18:17:57.736Z,3.75
2023-03-29T18:20:24.494Z,3.65
2023-03-29T18:22:51.321Z,2.88
2023-03-29T18:25:18.289Z,3.00
2023-03-29T18:27:45.277Z,6.22
2023-03-29T18:30:16.898Z,4.70
2023-03-29T18:32:43.864Z,3.47
2023-03-29T18:35:12.150Z,4.10
2023-03-29T18:37:38.975Z,5.70
2023-03-29T18:40:08.588Z,5.57
2023-03-29T18:42:35.615Z,3.03
2023-03-29T18:45:03.232Z,3.70
2023-03-29T18:47:30.246Z,3.83
2023-03-29T18:49:57.693Z,4.10
2023-03-29T18:52:24.504Z,5.28
2023-03-29T18:54:51.419Z,5.50
2023-03-29T18:57:18.563Z,4.10
2023-03-29T18:59:47.372Z,4.60
2023-03-29T19:02:14.140Z,4.18
2023-03-29T19:04:41.048Z,4.32
2023-03-29T19:07:08.824Z,3.78
2023-03-29T19:09:36.017Z,4.78
2023-03-29T19:12:03.309Z,6.25
2023-03-29T19:14:33.112Z,4.10
2023-03-29T19:16:59.835Z,4.80
2023-03-29T19:19:27.157Z,3.75
2023-03-29T19:21:54.841Z,5.78
2023-03-29T19:24:21.952Z,4.22
2023-03-29T19:26:49.993Z,3.95
2023-03-29T19:29:18.862Z,5.05
2023-03-29T19:31:45.651Z,4.45
2023-03-29T19:34:12.482Z,4.47
2023-03-29T19:36:39.768Z,6.43
2023-03-29T19:39:07.159Z,6.70
2023-03-29T19:41:33.883Z,4.57
2023-03-29T19:44:00.683Z,4.13
2023-03-29T19:46:28.854Z,4.57
2023-03-29T19:48:56.234Z,7.63
2023-03-29T19:51:23.622Z,4.55
2023-03-29T19:53:52.671Z,7.07
2023-03-29T19:56:20.116Z,5.90
2023-03-29T19:58:48.095Z,7.75
2023-03-29T20:01:15.626Z,4.45
2023-03-29T20:03:43.831Z,4.93
2023-03-29T20:06:10.907Z,4.45
2023-03-29T20:08:38.683Z,5.68
2023-03-29T20:11:10.305Z,5.47
2023-03-29T20:13:45.290Z,7.18
2023-03-29T20:16:16.143Z,4.53
2023-03-29T20:18:47.235Z,5.60
2023-03-29T20:21:16.562Z,4.00
2023-03-29T20:23:44.083Z,5.15
2023-03-29T20:26:11.112Z,4.53
2023-03-29T20:28:37.910Z,4.30
2023-03-29T20:31:10.390Z,5.82
2023-03-29T20:33:37.873Z,6.65
2023-03-29T20:36:06.610Z,6.68
2023-03-29T20:38:34.906Z,5.55
2023-03-29T20:41:04.025Z,4.82
2023-03-29T20:43:37.363Z,5.00
2023-03-29T20:46:05.724Z,4.63
2023-03-29T20:48:32.465Z,7.50
2023-03-29T20:51:02.710Z,3.80
2023-03-29T20:53:34.044Z,4.20
2023-03-29T20:56:00.794Z,6.35
2023-03-29T20:58:28.988Z,5.13
2023-03-29T21:00:58.661Z,5.50
2023-03-29T21:03:25.622Z,4.93
2023-03-29T21:05:55.507Z,7.00
2023-03-29T21:08:22.291Z,5.28
2023-03-29T21:10:49.064Z,4.72
2023-03-29T21:13:15.824Z,5.97
2023-03-29T21:15:43.642Z,5.88
2023-03-29T21:18:11.071Z,5.40
2023-03-29T21:20:37.822Z,5.30
2023-03-29T21:23:04.817Z,5.80
2023-03-29T21:25:31.529Z,4.50
2023-03-29T21:27:58.217Z,7.80
2023-03-29T21:30:24.961Z,7.38
2023-03-29T21:32:51.741Z,4.45
2023-03-29T21:35:18.703Z,4.60
2023-03-29T21:37:45.594Z,6.28
2023-03-29T21:40:13.172Z,4.28
2023-03-29T21:42:39.967Z,7.30
2023-03-29T21:45:07.774Z,3.80
2023-03-29T21:47:34.499Z,4.80
2023-03-29T21:50:01.212Z,5.47
2023-03-29T21:52:27.954Z,5.75
2023-03-29T21:54:54.743Z,5.35
2023-03-29T21:57:21.512Z,5.75
2023-03-29T21:59:48.319Z,7.25
2023-03-29T22:02:16.900Z,6.35
2023-03-29T22:04:43.740Z,5.40
2023-03-29T22:07:10.648Z,8.27
2023-03-29T22:09:37.583Z,6.20
2023-03-29T22:12:04.643Z,6.53
2023-03-29T22:14:35.099Z,5.72
2023-03-29T22:17:07.792Z,7.47
2023-03-29T22:19:39.526Z,6.40
2023-03-29T22:22:13.038Z,5.65
2023-03-29T22:24:41.313Z,6.40
2023-03-29T22:27:08.377Z,6.28
2023-03-29T22:29:35.339Z,4.85
2023-03-29T22:32:02.193Z,6.63
2023-03-29T22:34:29.942Z,4.05
2023-03-29T22:36:56.826Z,5.70
2023-03-29T22:39:23.574Z,6.22
2023-03-29T22:41:51.375Z,3.90
2023-03-29T22:44:18.106Z,5.05
2023-03-29T22:46:44.951Z,5.05
2023-03-29T22:49:13.144Z,4.13
2023-03-29T22:51:39.929Z,6.78
2023-03-29T22:54:06.793Z,5.22
2023-03-29T22:56:33.629Z,5.43
2023-03-29T22:59:01.681Z,5.88
2023-03-29T23:01:28.441Z,4.97
2023-03-29T23:03:55.269Z,4.43
2023-03-29T23:06:21.989Z,5.47
2023-03-29T23:08:48.764Z,7.43
2023-03-29T23:11:15.555Z,4.65
2023-03-29T23:13:42.266Z,5.07
2023-03-29T23:16:09.552Z,5.03
2023-03-29T23:18:37.427Z,4.28
2023-03-29T23:21:06.340Z,5.60
2023-03-29T23:23:33.602Z,4.63
2023-03-29T23:26:01.987Z,3.92
2023-03-29T23:28:30.533Z,4.28
2023-03-29T23:31:12.492Z,6.47
2023-03-29T23:33:42.791Z,5.28
2023-03-29T23:36:18.037Z,5.78
2023-03-29T23:38:46.706Z,7.90
2023-03-29T23:41:13.801Z,4.20
2023-03-29T23:43:43.900Z,3.42
2023-03-29T23:46:16.812Z,4.65
2023-03-29T23:48:49.219Z,5.20
2023-03-29T23:51:19.052Z,5.57
2023-03-29T23:53:46.501Z,5.18
2023-03-29T23:56:13.213Z,5.55
2023-03-29T23:58:40.042Z,3.70
